createdAt,value
2019-05-21T00:00:01.512Z,99.90
2019-05-21T00:02:35.031Z,99.90
2019-05-21T00:05:09.853Z,99.90
2019-05-21T00:07:47.702Z,99.90
2019-05-21T00:10:20.201Z,99.90
2019-05-21T00:12:56.279Z,99.90
2019-05-21T00:15:32.626Z,99.90
2019-05-21T00:18:05.470Z,99.90
2019-05-21T00:20:38.004Z,99.90
2019-05-21T00:23:10.969Z,99.90
2019-05-21T00:25:42.551Z,99.90
2019-05-21T00:28:42.939Z,99.90
2019-05-21T00:31:50.407Z,99.90
2019-05-21T00:34:58.055Z,99.90
2019-05-21T00:38:08.849Z,99.90
2019-05-21T00:41:16.040Z,99.90
2019-05-21T00:43:56.781Z,99.90
2019-05-21T00:46:27.924Z,99.90
2019-05-21T00:48:59.831Z,99.90
2019-05-21T00:51:32.725Z,99.90
2019-05-21T00:54:05.138Z,99.90
2019-05-21T00:56:37.660Z,99.90
2019-05-21T00:59:11.573Z,99.90
2019-05-21T01:01:45.248Z,99.90
2019-05-21T01:04:18.271Z,99.90
2019-05-21T01:06:51.545Z,99.90
2019-05-21T01:09:23.843Z,99.90
2019-05-21T01:11:55.750Z,99.90
2019-05-21T01:14:29.476Z,99.90
2019-05-21T01:17:03.656Z,99.90
2019-05-21T01:19:36.729Z,99.90
2019-05-21T01:22:10.812Z,99.90
2019-05-21T01:24:42.881Z,99.90
2019-05-21T01:27:15.916Z,99.90
2019-05-21T01:29:48.676Z,99.90
2019-05-21T01:32:22.946Z,99.90
2019-05-21T01:34:54.979Z,99.90
2019-05-21T01:37:27.336Z,99.90
2019-05-21T01:39:59.238Z,99.90
2019-05-21T01:42:32.000Z,99.90
2019-05-21T01:45:04.923Z,99.90
2019-05-21T01:47:38.917Z,99.90
2019-05-21T01:50:11.292Z,99.90
2019-05-21T01:52:44.056Z,99.90
2019-05-21T01:55:17.083Z,99.90
2019-05-21T01:57:50.268Z,99.90
2019-05-21T02:00:22.675Z,99.90
2019-05-21T02:02:55.136Z,99.90
2019-05-21T02:05:33.153Z,99.90
2019-05-21T02:08:00.168Z,99.90
2019-05-21T02:10:32.085Z,99.90
2019-05-21T02:13:04.401Z,99.90
2019-05-21T02:15:35.849Z,99.90
2019-05-21T02:18:11.003Z,99.90
2019-05-21T02:20:43.443Z,99.90
2019-05-21T02:23:16.721Z,99.90
2019-05-21T02:25:49.647Z,99.90
2019-05-21T02:28:22.627Z,99.90
2019-05-21T02:30:56.510Z,99.90
2019-05-21T02:33:27.963Z,99.90
2019-05-21T02:35:59.895Z,99.90
2019-05-21T02:38:32.210Z,99.90
2019-05-21T02:41:04.576Z,99.90
2019-05-21T02:43:37.071Z,99.90
2019-05-21T02:46:08.960Z,99.90
2019-05-21T02:48:42.830Z,99.90
2019-05-21T02:51:14.294Z,99.90
2019-05-21T02:53:46.944Z,99.90
2019-05-21T02:56:18.894Z,99.90
2019-05-21T02:58:52.138Z,99.90
2019-05-21T03:01:36.013Z,99.90
2019-05-21T03:04:08.050Z,99.90
2019-05-21T03:06:39.847Z,99.90
2019-05-21T03:09:12.258Z,99.90
2019-05-21T03:11:55.089Z,99.90
2019-05-21T03:14:26.959Z,99.90
2019-05-21T03:16:59.434Z,99.90
2019-05-21T03:19:30.930Z,99.90
2019-05-21T03:22:02.388Z,99.90
2019-05-21T03:24:35.801Z,99.90
2019-05-21T03:27:08.073Z,99.90
2019-05-21T03:29:40.521Z,99.90
2019-05-21T03:32:13.625Z,99.90
2019-05-21T03:34:46.642Z,99.90
2019-05-21T03:37:18.265Z,99.90
2019-05-21T03:39:51.367Z,99.90
2019-05-21T03:42:24.771Z,99.90
2019-05-21T03:45:00.542Z,99.90
2019-05-21T03:47:30.729Z,99.90
2019-05-21T03:50:03.522Z,99.90
2019-05-21T03:52:35.793Z,99.90
2019-05-21T03:55:07.457Z,99.90
2019-05-21T03:57:40.325Z,99.90
2019-05-21T04:00:13.326Z,99.90
2019-05-21T04:02:46.360Z,99.90
2019-05-21T04:05:25.627Z,99.90
2019-05-21T04:07:58.082Z,99.90
2019-05-21T04:10:29.978Z,99.90
2019-05-21T04:13:11.334Z,99.90
2019-05-21T04:15:51.331Z,99.90
2019-05-21T04:18:27.527Z,99.90
2019-05-21T04:21:01.130Z,99.90
2019-05-21T04:23:32.587Z,99.90
2019-05-21T04:26:05.035Z,99.90
2019-05-21T04:28:36.893Z,99.90
2019-05-21T04:33:46.682Z,99.90
2019-05-21T04:36:19.240Z,99.90
2019-05-21T04:38:51.441Z,99.90
2019-05-21T04:41:26.140Z,99.90
2019-05-21T04:44:00.846Z,99.90
2019-05-21T04:46:33.073Z,99.90
2019-05-21T04:49:05.019Z,99.90
2019-05-21T04:51:37.382Z,99.90
2019-05-21T04:54:10.977Z,99.90
2019-05-21T04:56:45.118Z,99.90
2019-05-21T04:59:18.688Z,99.90
2019-05-21T05:01:50.671Z,99.90
2019-05-21T05:04:23.652Z,99.90
2019-05-21T05:06:55.737Z,99.90
2019-05-21T05:09:28.300Z,99.90
2019-05-21T05:12:00.746Z,99.90
2019-05-21T05:14:32.751Z,99.90
2019-05-21T05:17:06.914Z,99.90
2019-05-21T05:19:40.570Z,99.90
2019-05-21T05:22:14.226Z,99.90
2019-05-21T05:24:46.606Z,99.90
2019-05-21T05:27:18.961Z,99.90
2019-05-21T05:29:52.651Z,99.90
2019-05-21T05:32:24.759Z,99.90
2019-05-21T05:34:57.179Z,99.90
2019-05-21T05:37:43.250Z,99.90
2019-05-21T05:40:03.909Z,99.90
2019-05-21T05:42:37.534Z,99.90
2019-05-21T05:45:10.792Z,99.90
2019-05-21T05:47:42.787Z,99.90
2019-05-21T05:50:18.103Z,99.90
2019-05-21T05:52:51.797Z,99.90
2019-05-21T05:55:25.011Z,99.90
2019-05-21T05:57:57.247Z,99.90
2019-05-21T06:00:29.284Z,99.90
2019-05-21T06:03:01.276Z,99.90
2019-05-21T06:05:33.098Z,99.90
2019-05-21T06:08:05.488Z,99.90
2019-05-21T06:10:39.937Z,99.90
2019-05-21T06:13:12.416Z,99.90
2019-05-21T06:15:45.205Z,99.90
2019-05-21T06:18:23.200Z,99.90
2019-05-21T06:20:56.212Z,99.90
2019-05-21T06:23:28.994Z,99.90
2019-05-21T06:26:02.248Z,99.90
2019-05-21T06:28:33.778Z,99.90
2019-05-21T06:31:07.617Z,99.90
2019-05-21T06:33:41.820Z,99.90
2019-05-21T06:36:16.290Z,99.90
2019-05-21T06:38:48.954Z,99.90
2019-05-21T06:41:21.796Z,99.90
2019-05-21T06:43:56.418Z,99.90
2019-05-21T06:46:29.026Z,99.90
2019-05-21T06:49:02.019Z,99.90
2019-05-21T06:51:35.908Z,99.90
2019-05-21T06:54:08.796Z,99.90
2019-05-21T06:56:45.278Z,99.90
2019-05-21T06:59:18.328Z,99.90
2019-05-21T07:01:52.041Z,99.90
2019-05-21T07:04:24.399Z,99.90
2019-05-21T07:06:57.757Z,99.90
2019-05-21T07:09:30.010Z,99.90
2019-05-21T07:12:03.014Z,99.10
2019-05-21T07:14:36.280Z,99.90
2019-05-21T07:17:08.913Z,99.90
2019-05-21T07:19:41.825Z,99.90
2019-05-21T07:22:15.281Z,99.90
2019-05-21T07:24:47.193Z,99.90
2019-05-21T07:27:20.748Z,99.90
2019-05-21T07:29:56.361Z,97.80
2019-05-21T07:32:29.308Z,99.90
2019-05-21T07:35:02.366Z,97.80
2019-05-21T07:37:34.744Z,98.20
2019-05-21T07:40:07.958Z,98.80
2019-05-21T07:42:51.561Z,98.50
2019-05-21T07:45:24.335Z,98.60
2019-05-21T07:47:56.612Z,96.10
2019-05-21T07:50:29.392Z,95.30
2019-05-21T07:53:01.647Z,93.40
2019-05-21T07:55:34.196Z,93.60
2019-05-21T07:58:07.967Z,93.10
2019-05-21T08:00:40.588Z,92.80
2019-05-21T08:03:14.394Z,93.00
2019-05-21T08:05:49.523Z,92.50
2019-05-21T08:08:22.987Z,91.00
2019-05-21T08:10:58.198Z,91.60
2019-05-21T08:13:33.505Z,91.40
2019-05-21T08:16:06.142Z,90.30
2019-05-21T08:18:39.145Z,88.90
2019-05-21T08:21:12.484Z,88.60
2019-05-21T08:23:44.476Z,86.70
2019-05-21T08:26:18.096Z,88.60
2019-05-21T08:28:51.551Z,85.20
2019-05-21T08:31:24.619Z,88.90
2019-05-21T08:33:58.179Z,87.70
2019-05-21T08:36:30.600Z,87.70
2019-05-21T08:39:05.434Z,85.20
2019-05-21T08:41:40.023Z,85.30
2019-05-21T08:44:13.546Z,84.90
2019-05-21T08:46:46.464Z,82.80
2019-05-21T08:49:19.321Z,83.20
2019-05-21T08:51:51.696Z,81.90
2019-05-21T08:54:42.037Z,80.90
2019-05-21T08:57:14.208Z,85.10
2019-05-21T08:59:46.225Z,81.20
2019-05-21T09:02:19.644Z,80.40
2019-05-21T09:04:51.517Z,78.20
2019-05-21T09:07:24.102Z,78.80
2019-05-21T09:09:57.033Z,79.50
2019-05-21T09:12:30.144Z,81.30
2019-05-21T09:15:05.908Z,82.40
2019-05-21T09:17:38.702Z,82.30
2019-05-21T09:20:13.709Z,80.70
2019-05-21T09:22:47.055Z,78.20
2019-05-21T09:25:21.596Z,76.50
2019-05-21T09:28:00.056Z,74.80
2019-05-21T09:30:33.259Z,71.30
2019-05-21T09:33:09.922Z,71.10
2019-05-21T09:35:41.785Z,67.60
2019-05-21T09:38:17.430Z,66.70
2019-05-21T09:40:49.341Z,67.20
2019-05-21T09:43:23.538Z,66.50
2019-05-21T09:45:56.119Z,71.40
2019-05-21T09:48:40.075Z,73.60
2019-05-21T09:51:19.717Z,75.80
2019-05-21T09:53:47.537Z,75.80
2019-05-21T09:56:35.714Z,76.90
2019-05-21T09:59:26.471Z,76.60
2019-05-21T10:02:07.249Z,76.50
2019-05-21T10:04:40.803Z,74.90
2019-05-21T10:07:13.206Z,74.00
2019-05-21T10:09:45.712Z,73.00
2019-05-21T10:12:19.750Z,71.00
2019-05-21T10:14:54.849Z,73.00
2019-05-21T10:17:28.432Z,73.10
2019-05-21T10:20:02.019Z,72.80
2019-05-21T10:22:34.071Z,72.70
2019-05-21T10:25:07.891Z,73.90
2019-05-21T10:27:40.680Z,72.80
2019-05-21T10:30:14.364Z,72.60
2019-05-21T10:32:53.886Z,71.70
2019-05-21T10:35:27.321Z,71.60
2019-05-21T10:38:01.891Z,71.20
2019-05-21T10:40:34.304Z,71.70
2019-05-21T10:43:06.416Z,72.50
2019-05-21T10:45:38.665Z,72.70
2019-05-21T10:48:11.494Z,73.20
2019-05-21T10:50:45.467Z,71.60
2019-05-21T10:53:18.712Z,72.60
2019-05-21T10:55:52.845Z,70.20
2019-05-21T10:58:25.883Z,72.40
2019-05-21T11:01:03.445Z,71.40
2019-05-21T11:03:54.589Z,70.60
2019-05-21T11:06:28.248Z,70.60
2019-05-21T11:09:03.287Z,71.90
2019-05-21T11:11:37.819Z,71.10
2019-05-21T11:14:12.033Z,71.40
2019-05-21T11:16:45.745Z,70.60
2019-05-21T11:19:19.020Z,70.70
2019-05-21T11:21:55.106Z,70.30
2019-05-21T11:24:27.025Z,71.50
2019-05-21T11:27:04.751Z,70.50
2019-05-21T11:29:36.395Z,71.20
2019-05-21T11:32:14.149Z,71.10
2019-05-21T11:34:49.862Z,71.30
2019-05-21T11:37:20.268Z,70.90
2019-05-21T11:39:53.466Z,71.90
2019-05-21T11:42:26.459Z,71.20
2019-05-21T11:44:59.501Z,70.30
2019-05-21T11:47:33.447Z,70.90
2019-05-21T11:50:09.469Z,70.70
2019-05-21T11:52:43.885Z,70.30
2019-05-21T11:55:15.723Z,70.70
2019-05-21T11:57:48.528Z,71.40
2019-05-21T12:00:23.673Z,69.70
2019-05-21T12:02:55.678Z,70.70
2019-05-21T12:05:28.405Z,70.20
2019-05-21T12:08:02.422Z,70.30
2019-05-21T12:10:36.431Z,70.60
2019-05-21T12:13:09.303Z,71.00
2019-05-21T12:15:41.827Z,71.70
2019-05-21T12:18:14.614Z,69.80
2019-05-21T12:20:47.306Z,69.60
2019-05-21T12:23:21.221Z,69.30
2019-05-21T12:25:54.298Z,70.60
2019-05-21T12:28:27.967Z,69.50
2019-05-21T12:31:00.974Z,70.30
2019-05-21T12:33:35.258Z,70.20
2019-05-21T12:36:09.399Z,69.70
2019-05-21T12:38:42.741Z,70.20
2019-05-21T12:41:14.892Z,69.90
2019-05-21T12:43:47.570Z,71.10
2019-05-21T12:46:21.502Z,70.90
2019-05-21T12:48:54.536Z,70.10
2019-05-21T12:51:27.651Z,70.90
2019-05-21T12:54:03.159Z,71.30
2019-05-21T12:56:35.986Z,71.60
2019-05-21T12:59:09.855Z,72.50
2019-05-21T13:01:43.228Z,73.30
2019-05-21T13:04:16.474Z,72.50
2019-05-21T13:06:49.466Z,72.70
2019-05-21T13:09:32.329Z,73.50
2019-05-21T13:11:56.690Z,74.80
2019-05-21T13:14:29.240Z,73.80
2019-05-21T13:17:02.594Z,73.00
2019-05-21T13:19:37.384Z,72.10
2019-05-21T13:22:16.255Z,71.90
2019-05-21T13:24:49.647Z,65.80
2019-05-21T13:27:30.534Z,63.40
2019-05-21T13:30:07.550Z,65.40
2019-05-21T13:32:43.781Z,64.90
2019-05-21T13:35:15.917Z,65.20
2019-05-21T13:37:58.180Z,66.10
2019-05-21T13:40:32.010Z,66.80
2019-05-21T13:43:05.436Z,67.40
2019-05-21T13:45:45.056Z,67.40
2019-05-21T13:48:19.010Z,64.40
2019-05-21T13:50:51.695Z,63.90
2019-05-21T13:53:23.559Z,63.50
2019-05-21T13:55:56.565Z,63.50
2019-05-21T13:58:32.359Z,63.20
2019-05-21T14:01:07.102Z,63.20
2019-05-21T14:03:40.424Z,64.20
2019-05-21T14:06:12.682Z,64.70
2019-05-21T14:08:45.883Z,64.80
2019-05-21T14:11:21.605Z,65.20
2019-05-21T14:13:55.943Z,66.40
2019-05-21T14:16:28.070Z,66.10
2019-05-21T14:18:59.531Z,67.90
2019-05-21T14:21:32.306Z,67.60
2019-05-21T14:24:06.102Z,68.00
2019-05-21T14:26:39.163Z,68.50
2019-05-21T14:29:11.442Z,68.60
2019-05-21T14:31:43.948Z,69.70
2019-05-21T14:34:17.405Z,69.10
2019-05-21T14:36:53.488Z,69.50
2019-05-21T14:39:25.688Z,70.10
2019-05-21T14:41:59.131Z,70.40
2019-05-21T14:44:31.460Z,69.70
2019-05-21T14:47:06.211Z,69.80
2019-05-21T14:49:39.074Z,70.00
2019-05-21T14:52:12.355Z,69.40
2019-05-21T14:54:46.871Z,69.60
2019-05-21T14:57:20.161Z,70.10
2019-05-21T14:59:53.372Z,70.60
2019-05-21T15:02:26.253Z,69.70
2019-05-21T15:04:59.243Z,69.90
2019-05-21T15:07:31.829Z,69.30
2019-05-21T15:10:06.682Z,68.60
2019-05-21T15:12:39.508Z,68.90
2019-05-21T15:15:13.188Z,69.10
2019-05-21T15:17:45.823Z,69.80
2019-05-21T15:20:43.261Z,70.40
2019-05-21T15:23:16.500Z,70.90
2019-05-21T15:25:49.565Z,71.10
2019-05-21T15:28:22.882Z,70.60
2019-05-21T15:30:57.334Z,71.50
2019-05-21T15:33:32.437Z,70.80
2019-05-21T15:36:10.508Z,71.90
2019-05-21T15:39:03.726Z,72.20
2019-05-21T15:41:39.694Z,71.70
2019-05-21T15:44:16.586Z,72.00
2019-05-21T15:46:53.085Z,71.00
2019-05-21T15:49:36.027Z,71.70
2019-05-21T15:52:05.775Z,71.70
2019-05-21T15:54:45.928Z,71.20
2019-05-21T15:57:23.948Z,71.60
2019-05-21T15:59:59.361Z,70.90
2019-05-21T16:02:43.273Z,71.40
2019-05-21T16:05:21.105Z,72.30
2019-05-21T16:07:56.447Z,72.00
2019-05-21T16:10:32.259Z,72.80
2019-05-21T16:13:09.774Z,72.00
2019-05-21T16:15:47.009Z,72.30
2019-05-21T16:18:23.872Z,71.40
2019-05-21T16:21:02.999Z,71.40
2019-05-21T16:23:37.313Z,71.70
2019-05-21T16:26:11.228Z,71.70
2019-05-21T16:28:43.998Z,72.60
2019-05-21T16:31:17.641Z,74.10
2019-05-21T16:33:51.250Z,74.20
2019-05-21T16:36:26.249Z,75.00
2019-05-21T16:39:04.681Z,75.80
2019-05-21T16:41:44.900Z,76.30
2019-05-21T16:44:13.536Z,77.30
2019-05-21T16:46:48.311Z,78.00
2019-05-21T16:49:25.720Z,78.60
2019-05-21T16:51:58.499Z,79.00
2019-05-21T16:54:33.041Z,79.60
2019-05-21T16:57:06.949Z,79.80
2019-05-21T16:59:39.534Z,79.90
2019-05-21T17:02:13.262Z,80.20
2019-05-21T17:04:47.932Z,79.70
2019-05-21T17:07:21.512Z,79.60
2019-05-21T17:09:55.570Z,79.70
2019-05-21T17:12:38.371Z,79.60
2019-05-21T17:15:12.043Z,79.10
2019-05-21T17:17:45.366Z,79.60
2019-05-21T17:20:18.677Z,80.20
2019-05-21T17:22:52.261Z,80.10
2019-05-21T17:25:25.312Z,80.40
2019-05-21T17:27:57.957Z,80.60
2019-05-21T17:30:32.448Z,81.00
2019-05-21T17:33:06.303Z,81.20
2019-05-21T17:35:40.863Z,81.50
2019-05-21T17:38:13.659Z,82.00
2019-05-21T17:40:47.166Z,82.60
2019-05-21T17:43:22.411Z,83.70
2019-05-21T17:45:54.944Z,84.50
2019-05-21T17:48:28.284Z,85.60
2019-05-21T17:51:02.058Z,87.00
2019-05-21T17:53:43.514Z,88.30
2019-05-21T17:56:22.071Z,89.80
2019-05-21T17:58:54.462Z,90.50
2019-05-21T18:01:28.864Z,91.10
2019-05-21T18:04:02.982Z,91.50
2019-05-21T18:06:39.404Z,91.90
2019-05-21T18:09:19.102Z,92.20
2019-05-21T18:12:07.314Z,92.30
2019-05-21T18:14:42.028Z,92.40
2019-05-21T18:17:24.662Z,92.40
2019-05-21T18:20:01.125Z,92.40
2019-05-21T18:22:37.417Z,92.40
2019-05-21T18:25:12.981Z,92.20
2019-05-21T18:27:46.046Z,92.10
2019-05-21T18:30:20.466Z,91.60
2019-05-21T18:32:54.055Z,90.90
2019-05-21T18:35:28.706Z,90.30
2019-05-21T18:38:00.886Z,89.60
2019-05-21T18:40:33.659Z,89.00
2019-05-21T18:43:06.954Z,88.20
2019-05-21T18:45:41.995Z,88.20
2019-05-21T18:48:16.696Z,88.30
2019-05-21T18:50:49.191Z,88.50
2019-05-21T18:53:25.026Z,88.10
2019-05-21T18:55:58.801Z,88.40
2019-05-21T18:58:32.269Z,88.50
2019-05-21T19:01:14.534Z,88.80
2019-05-21T19:03:59.495Z,89.80
2019-05-21T19:06:33.483Z,90.00
2019-05-21T19:09:08.206Z,90.60
2019-05-21T19:11:50.950Z,90.90
2019-05-21T19:14:24.416Z,91.50
2019-05-21T19:16:58.139Z,92.70
2019-05-21T19:19:31.885Z,94.40
2019-05-21T19:22:06.506Z,95.40
2019-05-21T19:24:50.206Z,96.70
2019-05-21T19:27:23.208Z,98.20
2019-05-21T19:29:56.801Z,99.50
2019-05-21T19:32:30.644Z,99.90
2019-05-21T19:35:04.679Z,99.90
2019-05-21T19:37:38.729Z,99.90
2019-05-21T19:40:12.619Z,99.90
2019-05-21T19:42:54.502Z,99.90
2019-05-21T19:45:21.932Z,99.90
2019-05-21T19:47:56.818Z,99.90
2019-05-21T19:50:30.027Z,99.90
2019-05-21T19:55:59.499Z,99.90
2019-05-21T19:58:32.775Z,99.90
2019-05-21T20:01:06.605Z,99.90
2019-05-21T20:03:40.850Z,99.90
2019-05-21T20:06:19.077Z,99.90
2019-05-21T20:08:52.908Z,99.90
2019-05-21T20:11:29.860Z,99.90
2019-05-21T20:14:03.017Z,99.90
2019-05-21T20:16:40.927Z,99.90
2019-05-21T20:19:14.691Z,99.90
2019-05-21T20:21:49.769Z,99.90
2019-05-21T20:24:23.147Z,99.90
2019-05-21T20:27:06.016Z,99.90
2019-05-21T20:29:39.595Z,99.90
2019-05-21T20:32:15.213Z,99.90
2019-05-21T20:34:50.890Z,99.90
2019-05-21T20:37:29.115Z,99.90
2019-05-21T20:40:03.063Z,99.90
2019-05-21T20:42:36.485Z,99.90
2019-05-21T20:45:10.999Z,99.90
2019-05-21T20:47:48.784Z,99.90
2019-05-21T20:50:22.821Z,99.90
2019-05-21T20:52:58.336Z,99.90
2019-05-21T20:55:31.351Z,99.90
2019-05-21T20:58:04.207Z,99.90
2019-05-21T21:00:45.946Z,99.90
2019-05-21T21:03:21.387Z,99.90
2019-05-21T21:05:55.238Z,99.90
2019-05-21T21:08:28.680Z,99.90
2019-05-21T21:11:02.343Z,99.90
2019-05-21T21:13:36.227Z,99.90
2019-05-21T21:16:10.436Z,99.90
2019-05-21T21:18:45.018Z,99.90
2019-05-21T21:21:18.329Z,99.90
2019-05-21T21:23:56.427Z,99.90
2019-05-21T21:26:27.988Z,99.90
2019-05-21T21:29:00.278Z,99.90
2019-05-21T21:31:34.407Z,99.90
2019-05-21T21:34:08.351Z,99.90
2019-05-21T21:36:42.896Z,99.90
2019-05-21T21:39:17.738Z,99.90
2019-05-21T21:41:51.880Z,99.90
2019-05-21T21:44:33.507Z,99.90
2019-05-21T21:46:59.834Z,99.90
2019-05-21T21:49:33.299Z,99.90
2019-05-21T21:52:09.036Z,99.90
2019-05-21T21:54:43.199Z,99.90
2019-05-21T21:57:15.234Z,99.90
2019-05-21T21:59:48.388Z,99.90
2019-05-21T22:02:30.044Z,99.90
2019-05-21T22:05:03.930Z,99.90
2019-05-21T22:07:38.676Z,99.90
2019-05-21T22:10:12.510Z,99.90
2019-05-21T22:12:46.405Z,99.90
2019-05-21T22:15:19.427Z,99.90
2019-05-21T22:17:54.344Z,99.90
2019-05-21T22:20:28.286Z,99.90
2019-05-21T22:23:01.007Z,99.90
2019-05-21T22:25:33.719Z,99.90
2019-05-21T22:28:06.777Z,99.90
2019-05-21T22:30:41.852Z,99.90
2019-05-21T22:33:15.738Z,99.90
2019-05-21T22:35:49.986Z,99.90
2019-05-21T22:38:23.316Z,99.90
2019-05-21T22:40:58.185Z,99.90
2019-05-21T22:43:31.723Z,99.90
2019-05-21T22:46:05.303Z,99.90
2019-05-21T22:48:40.576Z,99.90
2019-05-21T22:51:14.457Z,99.90
2019-05-21T22:53:49.017Z,99.90
2019-05-21T22:56:22.587Z,99.90
2019-05-21T22:58:55.726Z,99.90
2019-05-21T23:01:31.371Z,99.90
2019-05-21T23:04:05.634Z,99.90
2019-05-21T23:06:38.468Z,99.90
2019-05-21T23:09:10.824Z,99.90
2019-05-21T23:11:43.446Z,99.90
2019-05-21T23:14:17.194Z,99.90
2019-05-21T23:16:52.323Z,99.90
2019-05-21T23:19:30.478Z,99.90
2019-05-21T23:24:53.293Z,99.90
2019-05-21T23:27:27.555Z,99.90
2019-05-21T23:30:00.346Z,99.90
2019-05-21T23:32:33.856Z,99.90
2019-05-21T23:35:11.071Z,99.90
2019-05-21T23:37:47.688Z,99.90
2019-05-21T23:40:22.416Z,99.90
2019-05-21T23:43:08.221Z,99.90
2019-05-21T23:45:41.514Z,99.90
2019-05-21T23:48:14.707Z,99.90
2019-05-21T23:50:48.105Z,99.90
2019-05-21T23:53:21.051Z,99.90
2019-05-21T23:55:53.923Z,99.90
2019-05-21T23:58:26.652Z,99.90
